Time;durP1;ratioP1;P1;durP2;ratioP2;P2;SDS_P1;SDS_P2;PMS_P1;PMS_P2;Temp;Humidity;BMP_temperature;BMP_pressure;BME280_temperature;BME280_humidity;BME280_pressure;Samples;Min_cycle;Max_cycle;Signal;HPM_P1;HPM_P2
2021/06/13 00:00:25;;;;;;;10.35;2.80;;;12.60;85.00;;;;;;5035050;28;19908;-71
2021/06/13 00:02:51;;;;;;;21.92;3.47;;;12.50;85.00;;;;;;5033837;28;20025;-71
2021/06/13 00:05:16;;;;;;;;;;;12.50;85.10;;;;;;5043693;28;20031;-71
2021/06/13 00:07:43;;;;;;;7.90;3.55;;;12.50;85.10;;;;;;5032989;28;19993;-71
2021/06/13 00:10:09;;;;;;;13.48;3.63;;;12.40;85.10;;;;;;5035803;28;20436;-71
2021/06/13 00:12:35;;;;;;;11.50;3.30;;;12.40;85.20;;;;;;5036533;28;20288;-71
2021/06/13 00:15:01;;;;;;;;;;;12.40;85.20;;;;;;5036381;28;20045;-71
2021/06/13 00:17:27;;;;;;;6.68;3.40;;;12.30;85.20;;;;;;5033858;28;19912;-71
2021/06/13 00:19:52;;;;;;;;;;;12.30;85.40;;;;;;5035802;28;20091;-71
2021/06/13 00:22:18;;;;;;;6.53;3.40;;;12.30;85.40;;;;;;5034791;28;19909;-71
2021/06/13 00:24:43;;;;;;;;;;;12.30;85.50;;;;;;5035614;28;20564;-71
2021/06/13 00:27:09;;;;;;;12.05;3.22;;;12.30;85.70;;;;;;5035844;28;19909;-71
2021/06/13 00:29:34;;;;;;;;;;;12.20;85.70;;;;;;5035900;28;20310;-71
2021/06/13 00:32:00;;;;;;;7.93;3.95;;;12.20;85.80;;;;;;5037105;28;19913;-71
2021/06/13 00:34:26;;;;;;;;;;;12.20;85.80;;;;;;5040255;28;20064;-71
2021/06/13 00:36:52;;;;;;;10.98;3.60;;;12.20;86.10;;;;;;5039662;28;19917;-71
2021/06/13 00:39:18;;;;;;;14.57;4.75;;;12.10;86.00;;;;;;5036352;28;20064;-71
2021/06/13 00:41:43;;;;;;;;;;;12.10;86.10;;;;;;5064552;22;20080;-68
2021/06/13 00:44:09;;;;;;;12.82;3.47;;;12.20;86.10;;;;;;5039012;28;20290;-69
2021/06/13 00:46:34;;;;;;;;;;;12.10;86.20;;;;;;5041483;28;20033;-69
2021/06/13 00:49:00;;;;;;;9.05;4.20;;;12.20;86.20;;;;;;5039399;28;19912;-69
2021/06/13 00:51:25;;;;;;;;;;;12.10;86.30;;;;;;5043496;28;20021;-70
2021/06/13 00:53:51;;;;;;;16.20;4.57;;;12.10;86.40;;;;;;5042284;28;19909;-69
2021/06/13 00:56:16;;;;;;;;;;;12.10;86.40;;;;;;5038963;28;20108;-68
2021/06/13 00:58:42;;;;;;;10.75;4.03;;;12.10;86.50;;;;;;5038482;28;20026;-68
2021/06/13 01:01:08;;;;;;;;;;;12.00;86.80;;;;;;5038447;28;20041;-68
2021/06/13 01:03:33;;;;;;;11.43;4.45;;;12.00;87.10;;;;;;5040831;28;19904;-68
2021/06/13 01:05:58;;;;;;;;;;;12.00;87.10;;;;;;5039160;28;20367;-68
2021/06/13 01:08:41;;;;;;;9.77;3.90;;;11.90;87.20;;;;;;5040280;28;19916;-69
2021/06/13 01:11:25;;;;;;;14.80;4.05;;;11.90;87.70;;;;;;5037745;28;20025;-69
2021/06/13 01:14:05;;;;;;;11.65;3.58;;;11.90;87.90;;;;;;5037235;28;20428;-70
2021/06/13 01:17:03;;;;;;;12.60;4.80;;;11.90;87.90;;;;;;5039626;28;20033;-70
2021/06/13 01:19:43;;;;;;;11.32;5.97;;;11.80;87.90;;;;;;5039672;28;20045;-69
2021/06/13 01:22:32;;;;;;;11.32;4.18;;;11.90;87.70;;;;;;5037207;28;20060;-70
2021/06/13 01:25:15;;;;;;;12.65;3.85;;;11.90;87.90;;;;;;5038007;28;20020;-69
2021/06/13 01:28:28;;;;;;;10.45;4.30;;;11.90;87.80;;;;;;5037249;28;20128;-70
2021/06/13 01:30:56;;;;;;;10.35;4.75;;;11.90;87.80;;;;;;5022410;28;20041;-70
2021/06/13 01:33:22;;;;;;;15.30;3.45;;;11.80;88.00;;;;;;5037574;28;20563;-70
2021/06/13 01:35:49;;;;;;;15.23;4.30;;;11.80;88.00;;;;;;5039917;28;20039;-69
2021/06/13 01:38:17;;;;;;;11.68;5.00;;;11.80;88.30;;;;;;5037633;28;20044;-69
2021/06/13 01:40:44;;;;;;;12.60;4.68;;;11.70;88.20;;;;;;5037713;28;20472;-69
2021/06/13 01:43:12;;;;;;;13.98;6.07;;;11.70;88.50;;;;;;5040368;28;20044;-69
2021/06/13 01:45:41;;;;;;;14.55;5.10;;;11.70;88.50;;;;;;5036612;28;20107;-69
2021/06/13 01:48:10;;;;;;;15.77;5.43;;;11.70;88.60;;;;;;5037342;28;20022;-69
2021/06/13 01:50:36;;;;;;;10.50;4.75;;;11.70;88.90;;;;;;5040529;28;20032;-69
2021/06/13 01:53:07;;;;;;;16.75;4.88;;;11.70;88.90;;;;;;5038010;28;20028;-69
2021/06/13 01:55:33;;;;;;;12.45;5.13;;;11.70;88.90;;;;;;5038239;28;20360;-69
2021/06/13 01:58:00;;;;;;;14.15;5.65;;;11.60;89.00;;;;;;5036636;28;20148;-69
2021/06/13 02:00:27;;;;;;;14.75;4.97;;;11.60;89.10;;;;;;5037857;28;20076;-69
2021/06/13 02:02:53;;;;;;;16.35;5.82;;;11.60;89.30;;;;;;5034274;28;20033;-69
2021/06/13 02:05:22;;;;;;;14.48;5.03;;;11.60;89.10;;;;;;5039872;28;20029;-70
2021/06/13 02:07:51;;;;;;;17.52;6.25;;;11.60;89.30;;;;;;5038269;28;20029;-69
2021/06/13 02:10:20;;;;;;;13.25;5.65;;;11.60;89.40;;;;;;5040151;28;20637;-69
2021/06/13 02:12:46;;;;;;;11.65;5.10;;;11.50;89.50;;;;;;5038933;28;20041;-69
2021/06/13 02:15:16;;;;;;;15.75;4.38;;;11.60;89.40;;;;;;5039067;28;20104;-68
2021/06/13 02:17:43;;;;;;;11.25;4.82;;;11.50;89.30;;;;;;5036225;28;20341;-69
2021/06/13 02:20:11;;;;;;;15.00;6.00;;;11.50;89.60;;;;;;5036856;28;20097;-68
2021/06/13 02:22:38;;;;;;;11.20;5.10;;;11.50;89.60;;;;;;5037403;28;20026;-68
2021/06/13 02:25:05;;;;;;;15.82;4.70;;;11.40;89.70;;;;;;5034622;28;20045;-68
2021/06/13 02:27:31;;;;;;;14.23;5.20;;;11.40;89.90;;;;;;5036978;28;20025;-68
2021/06/13 02:30:00;;;;;;;13.52;5.50;;;11.40;89.90;;;;;;5036967;28;20079;-69
2021/06/13 02:32:28;;;;;;;11.65;5.10;;;11.40;90.00;;;;;;5035657;28;20485;-68
2021/06/13 02:34:54;;;;;;;14.63;4.65;;;11.40;89.90;;;;;;5039497;28;20108;-69
2021/06/13 02:37:20;;;;;;;;;;;11.40;90.10;;;;;;5038427;28;20056;-68
2021/06/13 02:39:46;;;;;;;19.40;6.22;;;11.40;90.10;;;;;;5036699;28;19936;-68
2021/06/13 02:42:12;;;;;;;9.20;4.53;;;11.40;90.10;;;;;;5034595;28;20107;-68
2021/06/13 02:44:38;;;;;;;16.15;6.25;;;11.40;90.30;;;;;;5038203;28;20102;-69
2021/06/13 02:47:03;;;;;;;;;;;11.40;90.20;;;;;;5037601;28;20479;-68
2021/06/13 02:49:29;;;;;;;9.10;4.57;;;11.30;90.20;;;;;;5040373;28;19915;-69
2021/06/13 02:52:09;;;;;;;;;;;11.30;90.30;;;;;;5039766;28;20444;-69
2021/06/13 02:54:37;;;;;;;16.88;7.10;;;11.30;90.40;;;;;;5037671;28;20412;-69
2021/06/13 02:57:07;;;;;;;15.40;7.00;;;11.20;90.40;;;;;;5034932;28;20064;-70
2021/06/13 02:59:42;;;;;;;16.50;7.97;;;11.20;90.50;;;;;;5037100;28;20116;-71
2021/06/13 03:02:12;;;;;;;13.45;7.47;;;11.20;90.60;;;;;;5036858;28;20025;-70
2021/06/13 03:04:40;;;;;;;14.07;5.15;;;11.30;90.50;;;;;;5038636;28;20206;-70
2021/06/13 03:07:06;;;;;;;23.25;9.50;;;11.20;90.50;;;;;;5037128;28;20120;-70
2021/06/13 03:09:34;;;;;;;19.73;6.60;;;11.30;90.50;;;;;;5036648;28;20032;-69
2021/06/13 03:12:00;;;;;;;16.17;5.00;;;11.30;90.50;;;;;;5037365;28;20495;-69
2021/06/13 03:14:28;;;;;;;15.63;6.05;;;11.30;90.50;;;;;;5036463;28;20033;-70
2021/06/13 03:16:55;;;;;;;12.40;6.13;;;11.30;90.50;;;;;;5034832;28;20022;-69
2021/06/13 03:19:22;;;;;;;10.85;5.28;;;11.30;90.50;;;;;;5037052;28;20034;-69
2021/06/13 03:21:49;;;;;;;15.02;5.47;;;11.20;90.50;;;;;;5033430;28;20041;-69
2021/06/13 03:24:16;;;;;;;16.17;6.25;;;11.30;90.60;;;;;;5037770;28;20087;-69
2021/06/13 03:26:42;;;;;;;15.45;6.05;;;11.30;90.80;;;;;;5036132;28;20498;-69
2021/06/13 03:29:09;;;;;;;19.42;6.15;;;11.20;90.70;;;;;;5041102;28;20040;-69
2021/06/13 03:31:35;;;;;;;18.38;6.70;;;11.20;90.70;;;;;;5037330;28;20418;-70
2021/06/13 03:34:01;;;;;;;13.52;5.53;;;11.30;90.80;;;;;;5037554;28;20033;-70
2021/06/13 03:36:28;;;;;;;;;;;11.20;90.80;;;;;;5035368;28;20041;-70
2021/06/13 03:38:55;;;;;;;17.58;5.47;;;11.30;90.80;;;;;;5038573;28;19921;-69
2021/06/13 03:41:22;;;;;;;14.13;6.15;;;11.30;90.80;;;;;;5037026;28;20104;-69
2021/06/13 03:43:49;;;;;;;12.27;4.95;;;11.30;90.80;;;;;;5037572;28;20040;-69
2021/06/13 03:46:16;;;;;;;11.82;5.63;;;11.30;90.80;;;;;;5036666;28;20352;-70
2021/06/13 03:48:42;;;;;;;10.80;4.93;;;11.30;90.80;;;;;;5036456;28;20029;-70
2021/06/13 03:51:11;;;;;;;16.38;5.90;;;11.30;90.80;;;;;;5040140;28;20039;-69
2021/06/13 03:53:46;;;;;;;12.85;5.25;;;11.30;90.80;;;;;;5036026;28;20017;-69
2021/06/13 03:56:15;;;;;;;15.02;6.53;;;11.30;90.90;;;;;;5037726;28;20030;-70
2021/06/13 03:58:43;;;;;;;14.65;4.45;;;11.30;90.90;;;;;;5035183;28;20120;-69
2021/06/13 04:01:11;;;;;;;9.93;4.82;;;11.30;90.90;;;;;;5034782;28;20039;-69
2021/06/13 04:03:40;;;;;;;15.82;6.43;;;11.30;90.80;;;;;;5038548;28;20025;-69
2021/06/13 04:06:06;;;;;;;14.90;5.93;;;11.30;90.80;;;;;;5034803;28;20040;-69
2021/06/13 04:08:32;;;;;;;13.55;5.78;;;11.30;90.90;;;;;;5033476;28;20372;-69
2021/06/13 04:10:58;;;;;;;;;;;11.40;90.80;;;;;;5034692;28;20030;-70
2021/06/13 04:13:23;;;;;;;16.98;5.55;;;11.40;90.80;;;;;;5036186;28;19943;-70
2021/06/13 04:15:49;;;;;;;;;;;11.50;90.70;;;;;;5033000;28;20379;-69
2021/06/13 04:18:16;;;;;;;11.30;4.78;;;11.50;90.70;;;;;;5036928;28;20380;-69
2021/06/13 04:20:44;;;;;;;13.23;4.65;;;11.60;90.60;;;;;;5036101;28;20040;-69
2021/06/13 04:23:12;;;;;;;13.98;4.95;;;11.60;90.60;;;;;;5037886;28;20535;-69
2021/06/13 04:25:38;;;;;;;12.95;5.15;;;11.70;90.40;;;;;;5036676;28;20029;-69
2021/06/13 04:28:04;;;;;;;13.60;5.07;;;11.70;90.30;;;;;;5034811;28;20037;-69
2021/06/13 04:30:30;;;;;;;;;;;11.70;90.40;;;;;;5033924;28;20036;-69
2021/06/13 04:32:55;;;;;;;18.92;5.03;;;11.70;90.30;;;;;;5036445;28;19943;-69
2021/06/13 04:35:21;;;;;;;;;;;11.70;90.30;;;;;;5040605;28;20029;-69
2021/06/13 04:37:46;;;;;;;11.43;5.38;;;11.70;90.30;;;;;;5035791;28;20004;-69
2021/06/13 04:40:12;;;;;;;;;;;11.80;90.30;;;;;;5038760;28;20036;-69
2021/06/13 04:42:37;;;;;;;11.45;4.75;;;11.90;90.20;;;;;;5037720;28;19958;-69
2021/06/13 04:45:08;;;;;;;;;;;11.90;90.20;;;;;;5037427;28;20033;-69
2021/06/13 04:47:34;;;;;;;16.38;5.00;;;12.00;90.20;;;;;;5035164;28;19909;-69
2021/06/13 04:50:01;;;;;;;10.00;4.50;;;12.00;90.10;;;;;;5036411;28;20152;-69
2021/06/13 04:52:29;;;;;;;15.38;4.82;;;12.10;90.00;;;;;;5037077;28;20026;-69
2021/06/13 04:55:17;;;;;;;12.05;4.45;;;12.10;89.60;;;;;;5036776;28;20024;-69
2021/06/13 04:57:58;;;;;;;15.30;4.93;;;12.20;89.50;;;;;;5033520;28;20041;-69
2021/06/13 05:00:23;;;;;;;14.15;4.10;;;12.30;89.10;;;;;;5037241;28;20079;-69
2021/06/13 05:02:48;;;;;;;;;;;12.40;88.50;;;;;;5038226;28;20484;-70
2021/06/13 05:05:17;;;;;;;15.85;4.20;;;12.50;87.90;;;;;;5036382;28;20377;-70
2021/06/13 05:07:43;;;;;;;8.13;4.05;;;12.60;87.80;;;;;;5037639;28;20422;-70
2021/06/13 05:10:09;;;;;;;;;;;12.70;87.30;;;;;;5036243;28;20021;-70
2021/06/13 05:12:46;;;;;;;10.13;3.97;;;12.90;86.60;;;;;;5035770;28;20248;-69
2021/06/13 05:15:11;;;;;;;15.32;3.70;;;13.00;86.00;;;;;;5035773;28;20017;-69
2021/06/13 05:17:37;;;;;;;;;;;13.10;85.10;;;;;;5040650;28;20045;-69
2021/06/13 05:20:03;;;;;;;11.88;4.68;;;13.30;84.80;;;;;;5042344;28;20421;-69
2021/06/13 05:22:28;;;;;;;;;;;14.00;82.70;;;;;;5038951;28;20071;-69
2021/06/13 05:24:53;;;;;;;4.90;3.25;;;14.70;82.00;;;;;;5039366;28;19904;-69
2021/06/13 05:27:19;;;;;;;;;;;15.20;78.50;;;;;;5037050;28;20040;-69
2021/06/13 05:29:44;;;;;;;14.82;6.60;;;15.60;79.10;;;;;;5040494;28;19913;-69
2021/06/13 05:32:10;;;;;;;;;;;16.20;76.20;;;;;;5039533;28;20079;-70
2021/06/13 05:34:35;;;;;;;12.00;4.25;;;16.80;74.40;;;;;;5039494;28;19909;-70
2021/06/13 05:37:01;;;;;;;;;;;17.10;72.60;;;;;;5036817;28;20056;-70
2021/06/13 05:39:26;;;;;;;18.95;6.03;;;17.50;72.70;;;;;;5039877;28;20311;-69
2021/06/13 05:41:51;;;;;;;;;;;17.70;71.10;;;;;;5036741;28;20428;-69
2021/06/13 05:44:17;;;;;;;5.78;3.10;;;17.40;71.50;;;;;;5038639;28;19992;-70
2021/06/13 05:46:43;;;;;;;;;;;17.10;70.60;;;;;;5041892;28;20052;-70
2021/06/13 05:49:08;;;;;;;14.23;3.75;;;16.70;71.80;;;;;;5041350;28;19909;-70
2021/06/13 05:51:34;;;;;;;;;;;16.50;71.40;;;;;;5037447;28;20052;-70
2021/06/13 05:53:59;;;;;;;9.77;3.38;;;16.10;72.20;;;;;;5040431;28;19962;-70
2021/06/13 05:56:25;;;;;;;10.02;3.95;;;15.80;73.20;;;;;;5029989;28;20139;-70
2021/06/13 05:58:50;;;;;;;;;;;15.60;74.20;;;;;;5034252;28;20033;-70
2021/06/13 06:01:16;;;;;;;13.88;3.25;;;15.40;74.20;;;;;;5027248;28;19917;-70
2021/06/13 06:03:41;;;;;;;;;;;15.20;74.90;;;;;;5034869;28;20155;-70
2021/06/13 06:06:07;;;;;;;10.38;3.33;;;15.00;74.80;;;;;;5038173;28;19995;-70
2021/06/13 06:08:32;;;;;;;;;;;14.80;75.40;;;;;;5038515;28;20548;-69
2021/06/13 06:10:58;;;;;;;11.20;3.50;;;14.70;76.50;;;;;;5039640;28;19909;-69
2021/06/13 06:13:23;;;;;;;10.52;3.78;;;14.60;76.70;;;;;;5037562;28;20548;-70
2021/06/13 06:15:49;;;;;;;;;;;14.60;77.00;;;;;;5036801;28;20033;-69
2021/06/13 06:18:14;;;;;;;18.10;4.10;;;14.40;77.20;;;;;;5038645;28;19921;-70
2021/06/13 06:20:39;;;;;;;;;;;14.30;77.20;;;;;;5036892;28;20120;-70
2021/06/13 06:23:05;;;;;;;8.95;3.08;;;14.20;77.90;;;;;;5039593;28;20275;-70
2021/06/13 06:25:31;;;;;;;;;;;14.20;78.00;;;;;;5039289;28;20552;-69
2021/06/13 06:27:58;;;;;;;7.68;4.03;;;14.30;78.30;;;;;;5037733;28;20326;-69
2021/06/13 06:30:25;;;;;;;7.22;3.45;;;14.40;78.30;;;;;;5036131;28;20029;-70
2021/06/13 06:32:51;;;;;;;10.23;3.55;;;14.50;77.70;;;;;;5035676;28;20040;-70
2021/06/13 06:35:16;;;;;;;;;;;14.60;77.10;;;;;;5037880;28;20032;-70
2021/06/13 06:37:42;;;;;;;13.18;3.63;;;14.60;77.50;;;;;;5035195;28;19909;-70
2021/06/13 06:40:09;;;;;;;;;;;14.60;76.80;;;;;;5039660;28;20028;-71
2021/06/13 06:42:35;;;;;;;8.63;2.58;;;14.60;76.90;;;;;;5046341;22;19932;-79
2021/06/13 06:45:00;;;;;;;;;;;14.60;76.50;;;;;;5015239;28;20018;-76
2021/06/13 06:47:26;;;;;;;10.57;3.22;;;14.50;76.60;;;;;;5032456;28;19924;-75
2021/06/13 06:49:52;;;;;;;;;;;14.50;76.30;;;;;;5018165;28;20469;-75
2021/06/13 06:52:17;;;;;;;10.35;3.25;;;14.60;76.70;;;;;;5018037;28;19906;-75
2021/06/13 06:54:43;;;;;;;;;;;14.70;76.70;;;;;;5019130;28;20034;-75
2021/06/13 06:57:09;;;;;;;10.05;2.60;;;14.90;76.70;;;;;;5017820;28;20374;-75
2021/06/13 06:59:35;;;;;;;;;;;15.00;75.00;;;;;;5016363;28;20041;-78
2021/06/13 07:02:01;;;;;;;6.25;3.05;;;15.10;75.20;;;;;;5018234;28;20406;-78
2021/06/13 07:04:26;;;;;;;10.00;3.88;;;15.30;75.20;;;;;;5017751;28;20044;-79
2021/06/13 07:06:52;;;;;;;;;;;15.40;73.30;;;;;;5018174;28;20045;-76
2021/06/13 07:09:17;;;;;;;10.65;2.78;;;15.50;73.90;;;;;;5017655;28;19913;-77
2021/06/13 07:11:43;;;;;;;;;;;15.50;73.30;;;;;;5019129;28;20026;-79
2021/06/13 07:14:08;;;;;;;8.40;3.13;;;15.50;73.50;;;;;;5018010;28;20275;-79
2021/06/13 07:16:34;;;;;;;9.80;3.42;;;15.50;73.70;;;;;;5017752;28;20034;-78
2021/06/13 07:18:59;;;;;;;10.10;3.15;;;15.60;72.90;;;;;;5017746;28;20037;-76
2021/06/13 07:21:25;;;;;;;5.85;2.78;;;15.70;71.80;;;;;;5018354;28;20040;-79
2021/06/13 07:23:51;;;;;;;7.40;3.00;;;15.70;70.50;;;;;;5017473;28;20076;-78
2021/06/13 07:26:16;;;;;;;6.43;2.92;;;15.70;70.70;;;;;;5016312;28;20029;-76
2021/06/13 07:28:42;;;;;;;;;;;15.70;69.70;;;;;;5016719;28;20034;-75
2021/06/13 07:31:07;;;;;;;14.35;2.58;;;15.50;70.30;;;;;;5012589;28;19910;-73
2021/06/13 07:33:33;;;;;;;8.23;3.22;;;15.40;70.70;;;;;;5015039;28;20026;-72
2021/06/13 07:35:58;;;;;;;9.50;2.50;;;15.30;70.50;;;;;;5016484;28;20464;-73
2021/06/13 07:38:24;;;;;;;;;;;15.20;70.60;;;;;;5017072;28;20041;-73
2021/06/13 07:40:50;;;;;;;8.50;2.25;;;15.20;70.90;;;;;;5017137;28;19921;-73
2021/06/13 07:43:16;;;;;;;;;;;15.30;70.70;;;;;;5016921;28;20092;-73
2021/06/13 07:45:42;;;;;;;9.00;2.78;;;15.30;70.10;;;;;;5014284;28;19908;-73
2021/06/13 07:48:09;;;;;;;7.50;3.33;;;15.30;70.90;;;;;;5014585;28;20444;-73
2021/06/13 07:50:35;;;;;;;15.23;3.08;;;15.30;71.00;;;;;;5016165;28;20095;-73
2021/06/13 07:53:01;;;;;;;8.90;2.88;;;15.40;71.20;;;;;;5016548;28;20406;-73
2021/06/13 07:55:26;;;;;;;;;;;15.50;71.30;;;;;;5024142;28;20104;-73
2021/06/13 07:57:52;;;;;;;6.10;2.63;;;15.70;71.30;;;;;;5016757;28;20205;-73
2021/06/13 08:00:19;;;;;;;14.85;3.85;;;15.80;70.70;;;;;;5016423;28;20128;-73
2021/06/13 08:02:46;;;;;;;9.52;2.67;;;15.90;68.90;;;;;;5015891;28;20053;-73
2021/06/13 08:05:15;;;;;;;7.68;2.25;;;15.80;68.30;;;;;;5017017;28;20021;-73
2021/06/13 08:07:40;;;;;;;9.52;2.47;;;15.70;68.80;;;;;;5016349;28;20417;-73
2021/06/13 08:10:07;;;;;;;;;;;15.70;69.20;;;;;;5017404;28;20055;-73
2021/06/13 08:12:33;;;;;;;13.38;2.80;;;15.80;68.80;;;;;;5014261;28;19939;-72
2021/06/13 08:14:59;;;;;;;10.55;2.95;;;15.80;68.30;;;;;;5017070;28;20613;-72
2021/06/13 08:17:24;;;;;;;9.50;2.30;;;15.80;68.20;;;;;;5022019;28;20055;-73
2021/06/13 08:19:50;;;;;;;;;;;15.80;68.50;;;;;;5018270;28;20546;-72
2021/06/13 08:22:15;;;;;;;7.07;2.45;;;15.90;68.30;;;;;;5015840;28;19948;-73
2021/06/13 08:24:41;;;;;;;11.30;2.83;;;16.00;68.60;;;;;;5009402;28;20037;-72
2021/06/13 08:27:07;;;;;;;5.97;2.22;;;16.10;67.90;;;;;;5013845;28;20041;-72
2021/06/13 08:29:33;;;;;;;;;;;16.10;68.10;;;;;;5016629;28;20030;-73
2021/06/13 08:31:58;;;;;;;6.70;2.85;;;16.20;68.50;;;;;;5015614;28;19940;-72
2021/06/13 08:34:25;;;;;;;14.27;2.13;;;16.30;67.40;;;;;;5016748;28;20507;-72
2021/06/13 08:36:51;;;;;;;8.30;4.32;;;16.40;67.30;;;;;;5016214;28;20101;-72
2021/06/13 08:39:17;;;;;;;15.15;4.22;;;16.40;66.50;;;;;;5015705;28;20050;-72
2021/06/13 08:41:42;;;;;;;20.67;13.85;;;16.50;66.90;;;;;;5014952;28;20051;-76
2021/06/13 08:44:08;;;;;;;14.98;9.05;;;16.80;67.30;;;;;;5017132;28;20026;-77
2021/06/13 08:46:37;;;;;;;13.73;6.45;;;17.00;66.20;;;;;;5014578;28;20034;-76
2021/06/13 08:49:02;;;;;;;10.25;3.88;;;17.20;65.20;;;;;;5016479;28;20523;-75
2021/06/13 08:51:28;;;;;;;8.30;2.88;;;17.30;64.50;;;;;;5018599;28;20034;-76
2021/06/13 08:53:54;;;;;;;9.77;2.97;;;17.40;62.10;;;;;;5025801;28;20022;-72
2021/06/13 08:56:21;;;;;;;9.85;2.47;;;17.30;62.70;;;;;;5017339;28;20721;-72
2021/06/13 08:58:48;;;;;;;8.43;3.08;;;17.10;62.50;;;;;;5019078;28;20515;-70
2021/06/13 09:01:15;;;;;;;7.10;2.50;;;17.00;62.70;;;;;;5019681;28;20036;-69
2021/06/13 09:03:41;;;;;;;6.82;2.33;;;17.00;62.30;;;;;;5018936;28;20113;-71
2021/06/13 09:06:07;;;;;;;5.82;2.65;;;17.00;62.90;;;;;;5020148;28;20033;-71
2021/06/13 09:08:41;;;;;;;8.43;3.75;;;17.10;63.20;;;;;;5018894;28;20042;-71
2021/06/13 09:11:09;;;;;;;4.95;2.38;;;17.20;63.50;;;;;;5018796;28;20033;-72
2021/06/13 09:13:37;;;;;;;6.25;2.28;;;17.40;62.40;;;;;;5019098;28;20101;-72
2021/06/13 09:16:06;;;;;;;6.72;2.20;;;17.50;61.60;;;;;;5016694;28;20053;-72
2021/06/13 09:18:33;;;;;;;7.03;2.38;;;17.50;61.40;;;;;;5019121;28;20116;-72
2021/06/13 09:20:59;;;;;;;4.72;2.60;;;17.60;62.00;;;;;;5018988;28;20025;-73
2021/06/13 09:23:29;;;;;;;10.23;2.65;;;17.90;61.90;;;;;;5018671;28;20133;-72
2021/06/13 09:26:00;;;;;;;7.60;2.72;;;18.00;58.90;;;;;;5019182;28;20385;-72
2021/06/13 09:28:27;;;;;;;9.80;3.15;;;18.00;60.30;;;;;;5019941;28;20021;-73
2021/06/13 09:30:54;;;;;;;14.23;2.92;;;18.10;60.00;;;;;;5018539;28;20025;-73
2021/06/13 09:33:23;;;;;;;7.57;2.38;;;18.00;60.00;;;;;;5019299;28;20558;-72
2021/06/13 09:35:50;;;;;;;6.00;2.35;;;17.90;57.50;;;;;;5019004;28;20649;-72
2021/06/13 09:38:32;;;;;;;6.45;2.35;;;17.70;58.70;;;;;;5019513;28;20042;-71
2021/06/13 09:41:02;;;;;;;7.78;2.42;;;17.60;58.80;;;;;;5018801;28;20100;-70
2021/06/13 09:43:47;;;;;;;11.20;3.00;;;17.70;58.10;;;;;;5018751;28;20452;-71
2021/06/13 09:46:21;;;;;;;6.82;2.55;;;17.70;58.00;;;;;;5018185;28;20048;-71
2021/06/13 09:48:49;;;;;;;4.03;2.05;;;17.70;58.10;;;;;;5019861;28;20384;-71
2021/06/13 09:51:18;;;;;;;6.78;2.13;;;17.70;58.00;;;;;;5018045;28;20484;-71
2021/06/13 09:53:45;;;;;;;7.88;2.38;;;17.70;57.70;;;;;;5020706;28;20022;-71
2021/06/13 09:56:21;;;;;;;9.27;2.50;;;17.70;58.10;;;;;;5032588;28;20063;-71
2021/06/13 09:59:02;;;;;;;9.10;3.05;;;17.70;58.60;;;;;;5018500;28;20021;-71
2021/06/13 10:01:32;;;;;;;6.18;2.17;;;17.70;58.70;;;;;;5015956;28;20083;-71
2021/06/13 10:03:59;;;;;;;8.40;2.35;;;17.80;58.20;;;;;;5017669;28;20032;-71
2021/06/13 10:06:30;;;;;;;7.63;3.20;;;17.80;57.80;;;;;;5018211;28;20044;-71
2021/06/13 10:08:57;;;;;;;7.90;2.30;;;17.60;58.70;;;;;;5016569;28;20049;-71
2021/06/13 10:11:22;;;;;;;4.57;2.45;;;17.60;58.90;;;;;;5016489;28;20489;-71
2021/06/13 10:13:59;;;;;;;10.68;2.63;;;17.70;59.10;;;;;;5019322;28;20033;-71
2021/06/13 10:16:34;;;;;;;6.32;2.53;;;17.80;58.60;;;;;;5017415;28;20377;-71
2021/06/13 10:19:11;;;;;;;8.57;2.25;;;17.70;58.80;;;;;;5032529;28;20025;-71
2021/06/13 10:21:49;;;;;;;7.38;2.70;;;17.70;59.30;;;;;;5017820;28;20136;-71
2021/06/13 10:24:37;;;;;;;11.63;3.53;;;17.60;59.20;;;;;;5017925;28;20092;-71
2021/06/13 10:27:05;;;;;;;8.52;2.45;;;17.60;59.30;;;;;;5017071;28;20025;-71
2021/06/13 10:29:33;;;;;;;6.35;2.45;;;17.70;58.40;;;;;;5016726;28;20045;-71
2021/06/13 10:32:01;;;;;;;8.13;3.08;;;17.80;58.90;;;;;;5017795;28;20095;-71
2021/06/13 10:34:28;;;;;;;7.40;2.42;;;17.80;58.30;;;;;;5018819;28;20125;-71
2021/06/13 10:36:56;;;;;;;10.07;2.95;;;17.70;58.20;;;;;;5018310;28;20039;-71
2021/06/13 10:39:27;;;;;;;4.30;2.05;;;17.70;58.20;;;;;;5016670;28;20041;-71
2021/06/13 10:41:56;;;;;;;7.00;3.33;;;17.70;58.70;;;;;;5016167;28;20049;-71
2021/06/13 10:44:24;;;;;;;4.07;2.33;;;17.90;58.60;;;;;;5018697;28;20026;-71
2021/06/13 10:46:54;;;;;;;6.07;2.10;;;18.10;58.40;;;;;;5015908;28;20030;-71
2021/06/13 10:49:39;;;;;;;7.10;2.50;;;18.50;58.30;;;;;;5016877;28;20568;-69
2021/06/13 10:52:13;;;;;;;5.82;2.15;;;18.70;58.00;;;;;;5015674;28;20394;-76
2021/06/13 10:54:55;;;;;;;5.55;2.38;;;18.90;56.00;;;;;;5016527;28;20050;-76
2021/06/13 10:57:25;;;;;;;10.63;2.17;;;18.90;55.90;;;;;;5018215;28;20037;-76
2021/06/13 10:59:58;;;;;;;9.93;2.45;;;18.80;56.20;;;;;;5013340;28;20037;-70
2021/06/13 11:02:33;;;;;;;7.43;2.22;;;18.90;56.60;;;;;;5012906;28;20041;-72
2021/06/13 11:05:03;;;;;;;7.10;2.40;;;19.00;56.40;;;;;;5017475;28;20116;-72
2021/06/13 11:07:35;;;;;;;6.88;2.33;;;19.00;56.00;;;;;;5016647;28;20025;-71
2021/06/13 11:12:57;;;;;;;6.15;2.20;;;18.90;54.70;;;;;;5017390;28;20034;-72
2021/06/13 11:15:22;;;;;;;;;;;18.90;54.20;;;;;;5017623;28;20088;-71
2021/06/13 11:17:57;;;;;;;7.80;2.57;;;19.00;53.90;;;;;;5031192;28;20343;-72
2021/06/13 11:20:36;;;;;;;5.70;1.80;;;19.00;54.00;;;;;;5018430;28;20025;-72
2021/06/13 11:23:04;;;;;;;6.95;2.60;;;19.00;54.30;;;;;;5017473;28;20026;-72
2021/06/13 11:25:31;;;;;;;5.35;2.03;;;19.10;54.20;;;;;;5015762;28;20458;-71
2021/06/13 11:28:14;;;;;;;3.80;2.05;;;19.20;54.00;;;;;;5016487;28;20030;-72
2021/06/13 11:30:42;;;;;;;4.70;2.05;;;19.20;54.10;;;;;;5016937;28;20112;-72
2021/06/13 11:33:09;;;;;;;9.63;2.20;;;19.30;54.80;;;;;;5015946;28;20029;-69
2021/06/13 11:35:42;;;;;;;8.82;2.25;;;19.60;55.10;;;;;;5020721;28;20037;-69
2021/06/13 11:38:14;;;;;;;6.72;2.38;;;20.00;54.40;;;;;;5015455;28;20022;-69
2021/06/13 11:40:51;;;;;;;10.48;3.05;;;20.10;52.60;;;;;;5030810;28;20037;-69
2021/06/13 11:43:19;;;;;;;8.25;2.70;;;20.10;52.50;;;;;;5015550;28;20103;-69
2021/06/13 11:46:01;;;;;;;8.05;2.42;;;20.10;52.20;;;;;;5015895;28;20042;-69
2021/06/13 11:48:31;;;;;;;7.28;2.00;;;20.10;52.30;;;;;;5016456;28;20112;-69
2021/06/13 11:51:16;;;;;;;5.35;2.30;;;19.90;52.50;;;;;;5015541;28;20049;-69
2021/06/13 11:54:04;;;;;;;7.05;1.67;;;19.90;53.00;;;;;;5030711;28;20439;-69
2021/06/13 11:59:07;;;;;;;5.68;2.42;;;19.90;52.80;;;;;;5015849;28;20083;-71
2021/06/13 12:01:36;;;;;;;4.85;2.30;;;20.00;51.70;;;;;;5017199;28;20497;-70
2021/06/13 12:04:02;;;;;;;9.48;2.03;;;20.10;52.30;;;;;;5016296;28;20028;-70
2021/06/13 12:06:28;;;;;;;5.95;2.60;;;20.20;51.40;;;;;;5016687;28;20041;-69
2021/06/13 12:08:54;;;;;;;6.05;2.72;;;20.10;51.40;;;;;;5013130;28;20032;-69
2021/06/13 12:11:55;;;;;;;6.22;2.40;;;20.00;51.90;;;;;;5014355;28;20032;-70
2021/06/13 12:14:41;;;;;;;6.50;2.72;;;20.00;52.30;;;;;;5016514;28;20121;-70
2021/06/13 12:17:10;;;;;;;9.32;2.90;;;19.90;52.60;;;;;;5015641;28;20030;-70
2021/06/13 12:19:44;;;;;;;5.55;2.65;;;19.90;53.10;;;;;;5030100;28;20033;-69
2021/06/13 12:22:23;;;;;;;5.20;2.00;;;20.20;52.80;;;;;;5016773;28;20038;-70
2021/06/13 12:27:27;;;;;;;11.73;3.25;;;20.50;51.70;;;;;;5020799;28;20623;-72
2021/06/13 12:29:59;;;;;;;5.47;2.20;;;20.50;51.80;;;;;;5021534;28;20029;-71
2021/06/13 12:32:26;;;;;;;7.68;3.22;;;20.70;51.20;;;;;;5017425;28;20041;-71
2021/06/13 12:35:14;;;;;;;7.50;2.83;;;20.80;51.00;;;;;;5020430;28;20030;-71
2021/06/13 12:37:54;;;;;;;7.43;3.10;;;20.70;51.00;;;;;;5018942;28;20025;-71
2021/06/13 12:40:19;;;;;;;6.90;2.40;;;20.60;51.40;;;;;;5019833;28;20029;-72
2021/06/13 12:42:46;;;;;;;6.80;1.83;;;20.60;51.70;;;;;;5041539;22;20069;-68
2021/06/13 12:45:14;;;;;;;8.25;2.58;;;20.60;50.60;;;;;;5018636;28;20025;-68
2021/06/13 12:47:46;;;;;;;6.78;2.70;;;20.60;50.10;;;;;;5019993;28;20093;-67
2021/06/13 12:50:34;;;;;;;6.40;3.45;;;20.40;50.90;;;;;;5015568;28;20057;-67
2021/06/13 12:53:01;;;;;;;5.90;2.90;;;20.20;51.30;;;;;;5018675;28;20083;-68
2021/06/13 12:55:43;;;;;;;8.32;2.42;;;20.20;51.70;;;;;;5013565;28;20025;-68
2021/06/13 12:58:12;;;;;;;5.35;2.33;;;20.30;51.50;;;;;;5017640;28;20139;-68
2021/06/13 13:00:37;;;;;;;3.28;2.00;;;20.40;51.80;;;;;;5015613;28;20045;-67
2021/06/13 13:03:15;;;;;;;4.30;2.50;;;20.40;50.50;;;;;;5015520;28;20258;-67
2021/06/13 13:05:43;;;;;;;7.40;2.28;;;20.50;50.90;;;;;;5018311;28;20136;-67
2021/06/13 13:08:12;;;;;;;6.40;1.88;;;20.40;49.80;;;;;;5017081;28;20121;-67
2021/06/13 13:10:38;;;;;;;3.85;2.00;;;20.40;50.00;;;;;;5016002;28;20044;-68